sensor_id;sensor_type;location;lat;lon;timestamp;P1;durP1;ratioP1;P2;durP2;ratioP2
19341;SDS011;9807;48.258;12.690;2022-08-01T00:01:06;2.20;;;2.10;;
19341;SDS011;9807;48.258;12.690;2022-08-01T00:03:32;4.97;;;2.57;;
19341;SDS011;9807;48.258;12.690;2022-08-01T00:05:58;4.03;;;2.63;;
19341;SDS011;9807;48.258;12.690;2022-08-01T00:08:24;3.10;;;2.57;;
19341;SDS011;9807;48.258;12.690;2022-08-01T00:10:49;2.40;;;2.10;;
19341;SDS011;9807;48.258;12.690;2022-08-01T00:13:15;4.40;;;2.40;;
19341;SDS011;9807;48.258;12.690;2022-08-01T00:15:41;3.67;;;2.50;;
19341;SDS011;9807;48.258;12.690;2022-08-01T00:18:07;5.03;;;2.60;;
19341;SDS011;9807;48.258;12.690;2022-08-01T00:20:32;2.67;;;2.30;;
19341;SDS011;9807;48.258;12.690;2022-08-01T00:22:58;3.60;;;2.50;;
19341;SDS011;9807;48.258;12.690;2022-08-01T00:25:26;2.77;;;2.03;;
19341;SDS011;9807;48.258;12.690;2022-08-01T00:27:52;2.00;;;1.90;;
19341;SDS011;9807;48.258;12.690;2022-08-01T00:30:19;4.87;;;2.73;;
19341;SDS011;9807;48.258;12.690;2022-08-01T00:32:44;3.07;;;2.23;;
19341;SDS011;9807;48.258;12.690;2022-08-01T00:35:10;3.47;;;2.40;;
19341;SDS011;9807;48.258;12.690;2022-08-01T00:37:39;2.47;;;2.27;;
19341;SDS011;9807;48.258;12.690;2022-08-01T00:40:05;2.97;;;2.67;;
19341;SDS011;9807;48.258;12.690;2022-08-01T00:42:32;3.70;;;2.17;;
19341;SDS011;9807;48.258;12.690;2022-08-01T00:44:58;3.03;;;2.13;;
19341;SDS011;9807;48.258;12.690;2022-08-01T00:47:24;3.70;;;2.80;;
19341;SDS011;9807;48.258;12.690;2022-08-01T00:49:49;5.53;;;2.97;;
19341;SDS011;9807;48.258;12.690;2022-08-01T00:52:15;2.80;;;2.17;;
19341;SDS011;9807;48.258;12.690;2022-08-01T00:54:41;2.30;;;2.10;;
19341;SDS011;9807;48.258;12.690;2022-08-01T00:57:08;3.43;;;2.80;;
19341;SDS011;9807;48.258;12.690;2022-08-01T00:59:34;2.90;;;2.70;;
19341;SDS011;9807;48.258;12.690;2022-08-01T01:02:03;2.50;;;2.30;;
19341;SDS011;9807;48.258;12.690;2022-08-01T01:04:30;2.80;;;2.30;;
19341;SDS011;9807;48.258;12.690;2022-08-01T01:07:31;2.30;;;2.10;;
19341;SDS011;9807;48.258;12.690;2022-08-01T01:15:26;3.30;;;2.93;;
19341;SDS011;9807;48.258;12.690;2022-08-01T01:18:02;3.30;;;2.97;;
19341;SDS011;9807;48.258;12.690;2022-08-01T01:20:32;3.40;;;3.10;;
19341;SDS011;9807;48.258;12.690;2022-08-01T01:28:27;4.63;;;2.73;;
19341;SDS011;9807;48.258;12.690;2022-08-01T01:31:10;4.40;;;2.97;;
19341;SDS011;9807;48.258;12.690;2022-08-01T01:33:39;6.00;;;2.97;;
19341;SDS011;9807;48.258;12.690;2022-08-01T01:36:07;4.43;;;3.47;;
19341;SDS011;9807;48.258;12.690;2022-08-01T01:38:36;3.80;;;2.40;;
19341;SDS011;9807;48.258;12.690;2022-08-01T01:41:08;3.03;;;2.30;;
19341;SDS011;9807;48.258;12.690;2022-08-01T01:43:36;4.30;;;2.83;;
19341;SDS011;9807;48.258;12.690;2022-08-01T01:46:06;6.70;;;3.30;;
19341;SDS011;9807;48.258;12.690;2022-08-01T01:48:34;4.97;;;3.40;;
19341;SDS011;9807;48.258;12.690;2022-08-01T01:51:00;5.70;;;3.60;;
19341;SDS011;9807;48.258;12.690;2022-08-01T01:53:27;5.87;;;3.43;;
19341;SDS011;9807;48.258;12.690;2022-08-01T01:55:55;3.73;;;2.93;;
19341;SDS011;9807;48.258;12.690;2022-08-01T01:58:24;5.03;;;3.30;;
19341;SDS011;9807;48.258;12.690;2022-08-01T02:00:51;6.40;;;3.40;;
19341;SDS011;9807;48.258;12.690;2022-08-01T02:03:20;5.03;;;3.63;;
19341;SDS011;9807;48.258;12.690;2022-08-01T02:05:47;3.97;;;2.80;;
19341;SDS011;9807;48.258;12.690;2022-08-01T02:08:15;4.27;;;3.27;;
19341;SDS011;9807;48.258;12.690;2022-08-01T02:10:42;5.70;;;3.83;;
19341;SDS011;9807;48.258;12.690;2022-08-01T02:13:30;5.37;;;3.90;;
19341;SDS011;9807;48.258;12.690;2022-08-01T02:15:57;6.20;;;3.90;;
19341;SDS011;9807;48.258;12.690;2022-08-01T02:18:24;4.27;;;3.80;;
19341;SDS011;9807;48.258;12.690;2022-08-01T02:20:50;5.30;;;4.10;;
19341;SDS011;9807;48.258;12.690;2022-08-01T02:23:17;4.43;;;3.57;;
19341;SDS011;9807;48.258;12.690;2022-08-01T02:25:50;5.00;;;3.60;;
19341;SDS011;9807;48.258;12.690;2022-08-01T02:28:25;4.30;;;3.90;;
19341;SDS011;9807;48.258;12.690;2022-08-01T02:31:00;8.60;;;4.97;;
19341;SDS011;9807;48.258;12.690;2022-08-01T02:33:40;4.10;;;3.63;;
19341;SDS011;9807;48.258;12.690;2022-08-01T02:36:10;3.73;;;3.23;;
19341;SDS011;9807;48.258;12.690;2022-08-01T02:38:40;3.77;;;3.40;;
19341;SDS011;9807;48.258;12.690;2022-08-01T02:41:08;5.47;;;3.67;;
19341;SDS011;9807;48.258;12.690;2022-08-01T02:43:40;7.27;;;4.40;;
19341;SDS011;9807;48.258;12.690;2022-08-01T02:46:09;9.93;;;4.63;;
19341;SDS011;9807;48.258;12.690;2022-08-01T02:48:41;6.70;;;4.30;;
19341;SDS011;9807;48.258;12.690;2022-08-01T02:51:08;7.83;;;5.30;;
19341;SDS011;9807;48.258;12.690;2022-08-01T02:53:36;3.60;;;3.30;;
19341;SDS011;9807;48.258;12.690;2022-08-01T02:56:06;4.00;;;3.60;;
19341;SDS011;9807;48.258;12.690;2022-08-01T02:58:33;5.60;;;4.40;;
19341;SDS011;9807;48.258;12.690;2022-08-01T03:01:05;4.47;;;3.93;;
19341;SDS011;9807;48.258;12.690;2022-08-01T03:03:33;3.50;;;3.20;;
19341;SDS011;9807;48.258;12.690;2022-08-01T03:06:00;3.37;;;3.07;;
19341;SDS011;9807;48.258;12.690;2022-08-01T03:08:31;7.07;;;4.23;;
19341;SDS011;9807;48.258;12.690;2022-08-01T03:10:57;4.27;;;3.57;;
19341;SDS011;9807;48.258;12.690;2022-08-01T03:13:25;5.87;;;3.30;;
19341;SDS011;9807;48.258;12.690;2022-08-01T03:15:52;3.50;;;3.20;;
19341;SDS011;9807;48.258;12.690;2022-08-01T03:18:20;3.23;;;2.77;;
19341;SDS011;9807;48.258;12.690;2022-08-01T03:20:49;3.83;;;2.87;;
19341;SDS011;9807;48.258;12.690;2022-08-01T03:23:17;4.03;;;2.67;;
19341;SDS011;9807;48.258;12.690;2022-08-01T03:25:44;4.17;;;2.97;;
19341;SDS011;9807;48.258;12.690;2022-08-01T03:28:12;5.27;;;3.00;;
19341;SDS011;9807;48.258;12.690;2022-08-01T03:30:39;3.37;;;2.80;;
19341;SDS011;9807;48.258;12.690;2022-08-01T03:33:06;4.87;;;3.20;;
19341;SDS011;9807;48.258;12.690;2022-08-01T03:35:49;5.50;;;3.83;;
19341;SDS011;9807;48.258;12.690;2022-08-01T03:38:21;3.87;;;3.30;;
19341;SDS011;9807;48.258;12.690;2022-08-01T03:40:53;3.17;;;2.83;;
19341;SDS011;9807;48.258;12.690;2022-08-01T03:43:37;2.73;;;2.23;;
19341;SDS011;9807;48.258;12.690;2022-08-01T03:46:07;2.53;;;2.33;;
19341;SDS011;9807;48.258;12.690;2022-08-01T03:48:42;2.50;;;2.30;;
19341;SDS011;9807;48.258;12.690;2022-08-01T03:51:13;2.90;;;2.70;;
19341;SDS011;9807;48.258;12.690;2022-08-01T03:53:41;3.90;;;2.53;;
19341;SDS011;9807;48.258;12.690;2022-08-01T03:56:09;4.30;;;2.60;;
19341;SDS011;9807;48.258;12.690;2022-08-01T03:58:40;3.10;;;2.60;;
19341;SDS011;9807;48.258;12.690;2022-08-01T04:01:07;3.50;;;3.20;;
19341;SDS011;9807;48.258;12.690;2022-08-01T04:03:37;6.40;;;3.70;;
19341;SDS011;9807;48.258;12.690;2022-08-01T04:06:07;7.43;;;3.87;;
19341;SDS011;9807;48.258;12.690;2022-08-01T04:08:38;3.87;;;3.47;;
19341;SDS011;9807;48.258;12.690;2022-08-01T04:11:05;5.57;;;4.03;;
19341;SDS011;9807;48.258;12.690;2022-08-01T04:13:35;4.47;;;3.90;;
19341;SDS011;9807;48.258;12.690;2022-08-01T04:16:01;7.63;;;4.20;;
19341;SDS011;9807;48.258;12.690;2022-08-01T04:18:30;6.80;;;4.50;;
19341;SDS011;9807;48.258;12.690;2022-08-01T04:20:59;3.37;;;3.07;;
19341;SDS011;9807;48.258;12.690;2022-08-01T04:23:25;5.37;;;3.87;;
19341;SDS011;9807;48.258;12.690;2022-08-01T04:25:53;4.77;;;3.20;;
19341;SDS011;9807;48.258;12.690;2022-08-01T04:28:20;5.13;;;3.10;;
19341;SDS011;9807;48.258;12.690;2022-08-01T04:30:48;7.13;;;2.80;;
19341;SDS011;9807;48.258;12.690;2022-08-01T04:33:16;5.43;;;2.90;;
19341;SDS011;9807;48.258;12.690;2022-08-01T04:35:44;10.03;;;3.80;;
19341;SDS011;9807;48.258;12.690;2022-08-01T04:38:14;9.57;;;4.27;;
19341;SDS011;9807;48.258;12.690;2022-08-01T04:40:44;7.70;;;4.50;;
19341;SDS011;9807;48.258;12.690;2022-08-01T04:43:11;7.07;;;4.30;;
19341;SDS011;9807;48.258;12.690;2022-08-01T04:45:38;4.50;;;4.03;;
19341;SDS011;9807;48.258;12.690;2022-08-01T04:48:07;4.90;;;3.93;;
19341;SDS011;9807;48.258;12.690;2022-08-01T04:50:34;5.13;;;4.13;;
19341;SDS011;9807;48.258;12.690;2022-08-01T04:53:00;6.20;;;4.70;;
19341;SDS011;9807;48.258;12.690;2022-08-01T04:55:28;8.17;;;4.67;;
19341;SDS011;9807;48.258;12.690;2022-08-01T04:57:54;11.80;;;5.50;;
19341;SDS011;9807;48.258;12.690;2022-08-01T05:00:20;17.40;;;5.60;;
19341;SDS011;9807;48.258;12.690;2022-08-01T05:02:45;13.20;;;5.20;;
19341;SDS011;9807;48.258;12.690;2022-08-01T05:05:12;9.07;;;5.10;;
19341;SDS011;9807;48.258;12.690;2022-08-01T05:07:37;11.03;;;5.17;;
19341;SDS011;9807;48.258;12.690;2022-08-01T05:10:04;4.97;;;3.53;;
19341;SDS011;9807;48.258;12.690;2022-08-01T05:12:30;5.03;;;4.47;;
19341;SDS011;9807;48.258;12.690;2022-08-01T05:14:57;4.50;;;4.10;;
19341;SDS011;9807;48.258;12.690;2022-08-01T05:17:23;8.07;;;4.67;;
19341;SDS011;9807;48.258;12.690;2022-08-01T05:19:52;7.07;;;4.10;;
19341;SDS011;9807;48.258;12.690;2022-08-01T05:22:18;10.80;;;4.60;;
19341;SDS011;9807;48.258;12.690;2022-08-01T05:24:44;7.50;;;4.30;;
19341;SDS011;9807;48.258;12.690;2022-08-01T05:27:11;6.37;;;4.43;;
19341;SDS011;9807;48.258;12.690;2022-08-01T05:29:37;5.77;;;4.30;;
19341;SDS011;9807;48.258;12.690;2022-08-01T05:32:03;6.93;;;3.83;;
19341;SDS011;9807;48.258;12.690;2022-08-01T05:34:30;4.93;;;3.93;;
19341;SDS011;9807;48.258;12.690;2022-08-01T05:36:55;8.03;;;4.10;;
19341;SDS011;9807;48.258;12.690;2022-08-01T05:39:21;4.50;;;3.50;;
19341;SDS011;9807;48.258;12.690;2022-08-01T05:41:47;5.33;;;3.90;;
19341;SDS011;9807;48.258;12.690;2022-08-01T05:44:12;4.60;;;3.50;;
19341;SDS011;9807;48.258;12.690;2022-08-01T05:46:38;6.40;;;3.73;;
19341;SDS011;9807;48.258;12.690;2022-08-01T05:49:07;8.10;;;3.73;;
19341;SDS011;9807;48.258;12.690;2022-08-01T05:51:33;5.73;;;3.20;;
19341;SDS011;9807;48.258;12.690;2022-08-01T05:53:59;7.50;;;3.70;;
19341;SDS011;9807;48.258;12.690;2022-08-01T05:56:28;7.23;;;3.90;;
19341;SDS011;9807;48.258;12.690;2022-08-01T05:58:54;4.10;;;3.50;;
19341;SDS011;9807;48.258;12.690;2022-08-01T06:01:19;4.70;;;3.50;;
19341;SDS011;9807;48.258;12.690;2022-08-01T06:03:46;4.90;;;3.50;;
19341;SDS011;9807;48.258;12.690;2022-08-01T06:06:11;8.03;;;3.17;;
19341;SDS011;9807;48.258;12.690;2022-08-01T06:08:39;7.47;;;3.60;;
19341;SDS011;9807;48.258;12.690;2022-08-01T06:11:05;10.63;;;3.37;;
19341;SDS011;9807;48.258;12.690;2022-08-01T06:13:30;4.07;;;3.00;;
19341;SDS011;9807;48.258;12.690;2022-08-01T06:15:56;5.40;;;3.03;;
19341;SDS011;9807;48.258;12.690;2022-08-01T06:18:22;5.87;;;3.00;;
19341;SDS011;9807;48.258;12.690;2022-08-01T06:20:48;4.43;;;3.10;;
19341;SDS011;9807;48.258;12.690;2022-08-01T06:23:14;5.50;;;3.10;;
19341;SDS011;9807;48.258;12.690;2022-08-01T06:25:41;9.10;;;3.20;;
19341;SDS011;9807;48.258;12.690;2022-08-01T06:28:07;5.37;;;3.03;;
19341;SDS011;9807;48.258;12.690;2022-08-01T06:30:33;5.97;;;2.93;;
19341;SDS011;9807;48.258;12.690;2022-08-01T06:33:02;5.60;;;2.80;;
19341;SDS011;9807;48.258;12.690;2022-08-01T06:35:28;4.23;;;2.80;;
19341;SDS011;9807;48.258;12.690;2022-08-01T06:37:55;3.53;;;2.67;;
19341;SDS011;9807;48.258;12.690;2022-08-01T06:40:21;4.47;;;2.90;;
19341;SDS011;9807;48.258;12.690;2022-08-01T06:42:47;6.13;;;2.80;;
19341;SDS011;9807;48.258;12.690;2022-08-01T06:45:13;10.83;;;3.10;;
19341;SDS011;9807;48.258;12.690;2022-08-01T06:47:39;5.73;;;3.17;;
19341;SDS011;9807;48.258;12.690;2022-08-01T06:50:07;7.17;;;2.73;;
19341;SDS011;9807;48.258;12.690;2022-08-01T06:52:34;5.20;;;3.20;;
19341;SDS011;9807;48.258;12.690;2022-08-01T06:55:03;6.00;;;2.70;;
19341;SDS011;9807;48.258;12.690;2022-08-01T06:57:29;3.90;;;3.17;;
19341;SDS011;9807;48.258;12.690;2022-08-01T06:59:55;5.23;;;3.20;;
19341;SDS011;9807;48.258;12.690;2022-08-01T07:02:21;4.70;;;3.13;;
19341;SDS011;9807;48.258;12.690;2022-08-01T07:04:50;7.13;;;3.13;;
19341;SDS011;9807;48.258;12.690;2022-08-01T07:07:15;4.53;;;3.00;;
19341;SDS011;9807;48.258;12.690;2022-08-01T07:09:41;7.90;;;3.00;;
19341;SDS011;9807;48.258;12.690;2022-08-01T07:12:07;3.23;;;2.93;;
19341;SDS011;9807;48.258;12.690;2022-08-01T07:14:33;4.20;;;2.90;;
19341;SDS011;9807;48.258;12.690;2022-08-01T07:17:00;3.30;;;2.83;;
19341;SDS011;9807;48.258;12.690;2022-08-01T07:19:28;6.53;;;2.90;;
19341;SDS011;9807;48.258;12.690;2022-08-01T07:21:57;8.07;;;3.03;;
19341;SDS011;9807;48.258;12.690;2022-08-01T07:24:23;3.77;;;2.97;;
19341;SDS011;9807;48.258;12.690;2022-08-01T07:26:49;4.23;;;2.70;;
19341;SDS011;9807;48.258;12.690;2022-08-01T07:29:15;7.67;;;2.90;;
19341;SDS011;9807;48.258;12.690;2022-08-01T07:31:41;5.80;;;2.97;;
19341;SDS011;9807;48.258;12.690;2022-08-01T07:34:07;3.00;;;2.70;;
19341;SDS011;9807;48.258;12.690;2022-08-01T07:36:33;4.00;;;3.30;;
19341;SDS011;9807;48.258;12.690;2022-08-01T07:38:59;3.90;;;3.13;;
19341;SDS011;9807;48.258;12.690;2022-08-01T07:41:25;7.53;;;3.00;;
19341;SDS011;9807;48.258;12.690;2022-08-01T07:43:50;3.00;;;2.80;;
19341;SDS011;9807;48.258;12.690;2022-08-01T07:46:16;4.47;;;3.00;;
19341;SDS011;9807;48.258;12.690;2022-08-01T07:48:42;7.83;;;2.80;;
19341;SDS011;9807;48.258;12.690;2022-08-01T07:51:08;4.97;;;2.90;;
19341;SDS011;9807;48.258;12.690;2022-08-01T07:53:35;6.50;;;2.90;;
19341;SDS011;9807;48.258;12.690;2022-08-01T07:56:01;3.13;;;2.67;;
19341;SDS011;9807;48.258;12.690;2022-08-01T07:58:31;6.57;;;2.80;;
19341;SDS011;9807;48.258;12.690;2022-08-01T08:00:57;5.07;;;2.60;;
19341;SDS011;9807;48.258;12.690;2022-08-01T08:03:23;5.87;;;2.70;;
19341;SDS011;9807;48.258;12.690;2022-08-01T08:05:51;2.93;;;2.60;;
19341;SDS011;9807;48.258;12.690;2022-08-01T08:08:17;4.03;;;2.50;;
19341;SDS011;9807;48.258;12.690;2022-08-01T08:10:43;3.27;;;2.37;;
19341;SDS011;9807;48.258;12.690;2022-08-01T08:13:09;3.10;;;2.80;;
19341;SDS011;9807;48.258;12.690;2022-08-01T08:15:35;4.70;;;2.83;;
19341;SDS011;9807;48.258;12.690;2022-08-01T08:18:02;7.67;;;3.07;;
19341;SDS011;9807;48.258;12.690;2022-08-01T08:20:28;6.50;;;2.80;;
19341;SDS011;9807;48.258;12.690;2022-08-01T08:22:55;2.80;;;2.50;;
19341;SDS011;9807;48.258;12.690;2022-08-01T08:25:26;3.93;;;2.87;;
19341;SDS011;9807;48.258;12.690;2022-08-01T08:27:53;4.43;;;2.70;;
19341;SDS011;9807;48.258;12.690;2022-08-01T08:30:19;3.57;;;2.80;;
19341;SDS011;9807;48.258;12.690;2022-08-01T08:32:45;5.60;;;2.77;;
19341;SDS011;9807;48.258;12.690;2022-08-01T08:35:10;3.30;;;2.80;;
19341;SDS011;9807;48.258;12.690;2022-08-01T08:37:37;7.23;;;2.80;;
19341;SDS011;9807;48.258;12.690;2022-08-01T08:40:07;3.30;;;2.40;;
19341;SDS011;9807;48.258;12.690;2022-08-01T08:42:33;3.83;;;2.70;;
19341;SDS011;9807;48.258;12.690;2022-08-01T08:44:59;4.07;;;2.70;;
19341;SDS011;9807;48.258;12.690;2022-08-01T08:47:25;5.43;;;2.47;;
19341;SDS011;9807;48.258;12.690;2022-08-01T08:49:56;3.60;;;2.50;;
19341;SDS011;9807;48.258;12.690;2022-08-01T08:52:23;3.27;;;2.43;;
19341;SDS011;9807;48.258;12.690;2022-08-01T08:54:50;3.90;;;2.70;;
19341;SDS011;9807;48.258;12.690;2022-08-01T08:57:18;5.37;;;2.30;;
19341;SDS011;9807;48.258;12.690;2022-08-01T08:59:45;8.00;;;2.80;;
19341;SDS011;9807;48.258;12.690;2022-08-01T09:02:12;4.73;;;2.30;;
19341;SDS011;9807;48.258;12.690;2022-08-01T09:04:38;5.57;;;2.80;;
19341;SDS011;9807;48.258;12.690;2022-08-01T09:07:05;2.57;;;2.37;;
19341;SDS011;9807;48.258;12.690;2022-08-01T09:09:35;3.63;;;2.70;;
19341;SDS011;9807;48.258;12.690;2022-08-01T09:12:02;7.27;;;3.10;;
19341;SDS011;9807;48.258;12.690;2022-08-01T09:14:28;6.43;;;2.80;;
19341;SDS011;9807;48.258;12.690;2022-08-01T09:17:07;7.33;;;2.67;;
19341;SDS011;9807;48.258;12.690;2022-08-01T09:22:07;5.50;;;2.80;;
19341;SDS011;9807;48.258;12.690;2022-08-01T09:24:36;4.73;;;2.60;;
19341;SDS011;9807;48.258;12.690;2022-08-01T09:27:20;3.50;;;2.57;;
19341;SDS011;9807;48.258;12.690;2022-08-01T09:29:48;5.43;;;2.60;;
19341;SDS011;9807;48.258;12.690;2022-08-01T09:32:15;3.10;;;2.43;;
19341;SDS011;9807;48.258;12.690;2022-08-01T09:34:41;4.30;;;2.83;;
19341;SDS011;9807;48.258;12.690;2022-08-01T09:37:07;3.83;;;2.50;;
19341;SDS011;9807;48.258;12.690;2022-08-01T09:39:36;6.43;;;2.60;;
19341;SDS011;9807;48.258;12.690;2022-08-01T09:42:24;6.30;;;2.93;;
19341;SDS011;9807;48.258;12.690;2022-08-01T09:44:51;6.60;;;2.80;;
19341;SDS011;9807;48.258;12.690;2022-08-01T09:47:18;5.30;;;3.03;;
19341;SDS011;9807;48.258;12.690;2022-08-01T09:49:46;3.37;;;2.40;;
19341;SDS011;9807;48.258;12.690;2022-08-01T09:52:25;5.77;;;2.50;;
19341;SDS011;9807;48.258;12.690;2022-08-01T09:54:53;9.70;;;2.73;;
19341;SDS011;9807;48.258;12.690;2022-08-01T09:57:29;7.27;;;3.13;;
19341;SDS011;9807;48.258;12.690;2022-08-01T09:59:56;6.40;;;2.50;;
19341;SDS011;9807;48.258;12.690;2022-08-01T10:02:28;3.30;;;2.50;;
19341;SDS011;9807;48.258;12.690;2022-08-01T10:05:02;6.03;;;2.63;;
19341;SDS011;9807;48.258;12.690;2022-08-01T10:07:30;2.97;;;2.40;;
19341;SDS011;9807;48.258;12.690;2022-08-01T10:09:56;6.17;;;2.47;;
19341;SDS011;9807;48.258;12.690;2022-08-01T10:12:37;2.60;;;2.30;;
19341;SDS011;9807;48.258;12.690;2022-08-01T10:15:05;3.40;;;2.40;;
19341;SDS011;9807;48.258;12.690;2022-08-01T10:17:32;4.60;;;2.40;;
19341;SDS011;9807;48.258;12.690;2022-08-01T10:19:59;2.90;;;2.33;;
19341;SDS011;9807;48.258;12.690;2022-08-01T10:22:27;2.90;;;2.30;;
19341;SDS011;9807;48.258;12.690;2022-08-01T10:24:56;3.20;;;2.33;;
19341;SDS011;9807;48.258;12.690;2022-08-01T10:27:24;4.63;;;2.27;;
19341;SDS011;9807;48.258;12.690;2022-08-01T10:29:55;3.60;;;2.30;;
19341;SDS011;9807;48.258;12.690;2022-08-01T10:32:22;4.50;;;2.10;;
19341;SDS011;9807;48.258;12.690;2022-08-01T10:34:51;4.53;;;2.40;;
19341;SDS011;9807;48.258;12.690;2022-08-01T10:37:17;4.33;;;2.00;;
19341;SDS011;9807;48.258;12.690;2022-08-01T10:39:43;2.90;;;2.10;;
19341;SDS011;9807;48.258;12.690;2022-08-01T10:42:10;4.90;;;2.33;;
19341;SDS011;9807;48.258;12.690;2022-08-01T10:44:37;3.60;;;2.00;;
19341;SDS011;9807;48.258;12.690;2022-08-01T10:47:06;5.00;;;2.03;;
19341;SDS011;9807;48.258;12.690;2022-08-01T10:49:36;6.93;;;2.43;;
19341;SDS011;9807;48.258;12.690;2022-08-01T10:52:17;2.73;;;2.43;;
19341;SDS011;9807;48.258;12.690;2022-08-01T10:54:45;4.83;;;2.37;;
19341;SDS011;9807;48.258;12.690;2022-08-01T10:57:12;3.17;;;1.97;;
19341;SDS011;9807;48.258;12.690;2022-08-01T10:59:49;5.87;;;2.33;;
19341;SDS011;9807;48.258;12.690;2022-08-01T11:02:25;3.17;;;2.17;;
19341;SDS011;9807;48.258;12.690;2022-08-01T11:04:55;4.33;;;2.20;;
19341;SDS011;9807;48.258;12.690;2022-08-01T11:12:59;3.43;;;2.60;;
19341;SDS011;9807;48.258;12.690;2022-08-01T11:15:28;5.43;;;2.10;;
19341;SDS011;9807;48.258;12.690;2022-08-01T11:17:54;4.33;;;2.37;;
19341;SDS011;9807;48.258;12.690;2022-08-01T11:25:26;5.23;;;2.37;;
19341;SDS011;9807;48.258;12.690;2022-08-01T11:30:41;3.33;;;2.37;;
19341;SDS011;9807;48.258;12.690;2022-08-01T11:33:07;4.60;;;2.17;;
19341;SDS011;9807;48.258;12.690;2022-08-01T11:35:34;3.23;;;2.10;;
19341;SDS011;9807;48.258;12.690;2022-08-01T11:41:10;2.50;;;2.30;;
19341;SDS011;9807;48.258;12.690;2022-08-01T11:52:09;2.87;;;2.03;;
19341;SDS011;9807;48.258;12.690;2022-08-01T11:54:39;4.07;;;2.20;;
19341;SDS011;9807;48.258;12.690;2022-08-01T11:57:28;3.27;;;2.23;;
19341;SDS011;9807;48.258;12.690;2022-08-01T12:00:00;4.80;;;2.33;;
19341;SDS011;9807;48.258;12.690;2022-08-01T12:02:40;5.13;;;2.10;;
19341;SDS011;9807;48.258;12.690;2022-08-01T12:05:07;3.80;;;2.10;;
19341;SDS011;9807;48.258;12.690;2022-08-01T12:07:34;2.07;;;1.70;;
19341;SDS011;9807;48.258;12.690;2022-08-01T12:12:32;2.33;;;2.00;;
19341;SDS011;9807;48.258;12.690;2022-08-01T12:15:04;3.93;;;2.00;;
19341;SDS011;9807;48.258;12.690;2022-08-01T12:20:06;6.20;;;2.10;;
19341;SDS011;9807;48.258;12.690;2022-08-01T12:22:33;6.10;;;2.03;;
19341;SDS011;9807;48.258;12.690;2022-08-01T12:25:07;6.60;;;1.70;;
19341;SDS011;9807;48.258;12.690;2022-08-01T12:27:34;6.23;;;2.03;;
19341;SDS011;9807;48.258;12.690;2022-08-01T12:30:01;4.80;;;1.80;;
19341;SDS011;9807;48.258;12.690;2022-08-01T12:32:35;3.80;;;1.73;;
19341;SDS011;9807;48.258;12.690;2022-08-01T12:37:30;2.50;;;1.80;;
19341;SDS011;9807;48.258;12.690;2022-08-01T12:39:59;3.77;;;1.83;;
19341;SDS011;9807;48.258;12.690;2022-08-01T12:42:25;5.37;;;2.00;;
19341;SDS011;9807;48.258;12.690;2022-08-01T12:44:51;3.80;;;1.63;;
19341;SDS011;9807;48.258;12.690;2022-08-01T12:47:18;6.17;;;2.60;;
19341;SDS011;9807;48.258;12.690;2022-08-01T12:49:46;7.33;;;1.80;;
19341;SDS011;9807;48.258;12.690;2022-08-01T12:52:13;5.63;;;1.90;;
19341;SDS011;9807;48.258;12.690;2022-08-01T12:57:48;2.30;;;2.00;;
19341;SDS011;9807;48.258;12.690;2022-08-01T13:00:17;5.40;;;2.00;;
19341;SDS011;9807;48.258;12.690;2022-08-01T13:02:46;4.43;;;2.00;;
19341;SDS011;9807;48.258;12.690;2022-08-01T13:05:12;6.93;;;1.90;;
19341;SDS011;9807;48.258;12.690;2022-08-01T13:10:23;5.53;;;2.07;;
19341;SDS011;9807;48.258;12.690;2022-08-01T13:12:54;3.97;;;1.90;;
19341;SDS011;9807;48.258;12.690;2022-08-01T13:18:00;3.03;;;1.80;;
19341;SDS011;9807;48.258;12.690;2022-08-01T13:20:46;2.90;;;1.80;;
19341;SDS011;9807;48.258;12.690;2022-08-01T13:23:13;3.13;;;1.50;;
19341;SDS011;9807;48.258;12.690;2022-08-01T13:25:50;2.23;;;1.70;;
19341;SDS011;9807;48.258;12.690;2022-08-01T13:28:21;3.80;;;1.80;;
19341;SDS011;9807;48.258;12.690;2022-08-01T13:33:18;2.50;;;1.60;;
19341;SDS011;9807;48.258;12.690;2022-08-01T13:35:44;1.80;;;1.57;;
19341;SDS011;9807;48.258;12.690;2022-08-01T13:38:11;3.27;;;1.60;;
19341;SDS011;9807;48.258;12.690;2022-08-01T13:40:37;7.30;;;2.17;;
19341;SDS011;9807;48.258;12.690;2022-08-01T13:43:02;7.40;;;1.73;;
19341;SDS011;9807;48.258;12.690;2022-08-01T13:45:28;1.80;;;1.40;;
19341;SDS011;9807;48.258;12.690;2022-08-01T13:47:54;4.90;;;1.87;;
19341;SDS011;9807;48.258;12.690;2022-08-01T13:50:20;4.07;;;1.70;;
19341;SDS011;9807;48.258;12.690;2022-08-01T13:52:46;4.13;;;1.50;;
19341;SDS011;9807;48.258;12.690;2022-08-01T13:55:11;2.57;;;1.47;;
19341;SDS011;9807;48.258;12.690;2022-08-01T13:57:37;6.77;;;1.80;;
19341;SDS011;9807;48.258;12.690;2022-08-01T14:00:04;7.83;;;1.90;;
19341;SDS011;9807;48.258;12.690;2022-08-01T14:02:32;6.77;;;1.73;;
19341;SDS011;9807;48.258;12.690;2022-08-01T14:04:57;4.80;;;1.47;;
19341;SDS011;9807;48.258;12.690;2022-08-01T14:07:24;3.73;;;1.60;;
19341;SDS011;9807;48.258;12.690;2022-08-01T14:09:50;2.60;;;1.40;;
19341;SDS011;9807;48.258;12.690;2022-08-01T14:12:16;1.50;;;1.40;;
19341;SDS011;9807;48.258;12.690;2022-08-01T14:14:42;3.57;;;1.70;;
19341;SDS011;9807;48.258;12.690;2022-08-01T14:17:07;1.80;;;1.30;;
19341;SDS011;9807;48.258;12.690;2022-08-01T14:19:33;3.77;;;1.50;;
19341;SDS011;9807;48.258;12.690;2022-08-01T14:21:59;5.73;;;1.43;;
19341;SDS011;9807;48.258;12.690;2022-08-01T14:24:24;3.53;;;1.37;;
19341;SDS011;9807;48.258;12.690;2022-08-01T14:26:52;1.37;;;1.27;;
19341;SDS011;9807;48.258;12.690;2022-08-01T14:29:18;6.77;;;1.60;;
19341;SDS011;9807;48.258;12.690;2022-08-01T14:31:47;3.07;;;1.40;;
19341;SDS011;9807;48.258;12.690;2022-08-01T14:34:12;3.90;;;1.30;;
19341;SDS011;9807;48.258;12.690;2022-08-01T14:36:38;1.77;;;1.33;;
19341;SDS011;9807;48.258;12.690;2022-08-01T14:39:04;4.27;;;1.73;;
19341;SDS011;9807;48.258;12.690;2022-08-01T14:41:30;5.37;;;1.60;;
19341;SDS011;9807;48.258;12.690;2022-08-01T14:43:56;4.67;;;1.73;;
19341;SDS011;9807;48.258;12.690;2022-08-01T14:46:27;4.03;;;1.70;;
19341;SDS011;9807;48.258;12.690;2022-08-01T14:48:53;3.33;;;1.40;;
19341;SDS011;9807;48.258;12.690;2022-08-01T14:51:19;5.27;;;1.40;;
19341;SDS011;9807;48.258;12.690;2022-08-01T14:53:45;5.17;;;1.80;;
19341;SDS011;9807;48.258;12.690;2022-08-01T14:56:10;5.73;;;1.60;;
19341;SDS011;9807;48.258;12.690;2022-08-01T14:58:36;1.70;;;1.40;;
19341;SDS011;9807;48.258;12.690;2022-08-01T15:01:05;2.87;;;1.77;;
19341;SDS011;9807;48.258;12.690;2022-08-01T15:03:31;9.07;;;1.30;;
19341;SDS011;9807;48.258;12.690;2022-08-01T15:05:57;2.53;;;1.50;;
19341;SDS011;9807;48.258;12.690;2022-08-01T15:08:23;3.77;;;1.40;;
19341;SDS011;9807;48.258;12.690;2022-08-01T15:10:49;2.60;;;1.60;;
19341;SDS011;9807;48.258;12.690;2022-08-01T15:13:14;1.80;;;1.30;;
19341;SDS011;9807;48.258;12.690;2022-08-01T15:15:40;3.07;;;1.33;;
19341;SDS011;9807;48.258;12.690;2022-08-01T15:18:06;3.97;;;1.30;;
19341;SDS011;9807;48.258;12.690;2022-08-01T15:20:32;5.53;;;1.37;;
19341;SDS011;9807;48.258;12.690;2022-08-01T15:22:58;8.20;;;1.40;;
19341;SDS011;9807;48.258;12.690;2022-08-01T15:25:23;3.13;;;1.50;;
19341;SDS011;9807;48.258;12.690;2022-08-01T15:27:52;7.27;;;1.37;;
19341;SDS011;9807;48.258;12.690;2022-08-01T15:30:17;2.57;;;1.30;;
19341;SDS011;9807;48.258;12.690;2022-08-01T15:32:43;2.23;;;1.23;;
19341;SDS011;9807;48.258;12.690;2022-08-01T15:35:09;2.90;;;1.40;;
19341;SDS011;9807;48.258;12.690;2022-08-01T15:37:37;2.60;;;1.50;;
19341;SDS011;9807;48.258;12.690;2022-08-01T15:40:03;1.43;;;1.33;;
19341;SDS011;9807;48.258;12.690;2022-08-01T15:42:30;5.07;;;1.50;;
19341;SDS011;9807;48.258;12.690;2022-08-01T15:44:56;4.10;;;1.30;;
19341;SDS011;9807;48.258;12.690;2022-08-01T15:47:21;1.40;;;1.30;;
19341;SDS011;9807;48.258;12.690;2022-08-01T15:49:47;3.23;;;1.60;;